Time;durP1;ratioP1;P1;durP2;ratioP2;P2;SDS_P1;SDS_P2;PMS_P1;PMS_P2;Temp;Humidity;BMP_temperature;BMP_pressure;BME280_temperature;BME280_humidity;BME280_pressure;Samples;Min_cycle;Max_cycle;Signal;HPM_P1;HPM_P2
2022/11/16 00:01:05;;;;;;;9.77;8.87;;;13.60;99.90;;;;;;5095155;28;20446;-69
2022/11/16 00:03:32;;;;;;;8.60;7.20;;;13.70;99.90;;;;;;5093902;28;20463;-69
2022/11/16 00:06:03;;;;;;;7.33;6.73;;;13.60;99.90;;;;;;5094757;28;20449;-69
2022/11/16 00:08:31;;;;;;;8.50;7.60;;;13.60;99.90;;;;;;5094988;28;20531;-69
2022/11/16 00:11:06;;;;;;;7.47;6.77;;;13.60;99.90;;;;;;5076734;28;20458;-69
2022/11/16 00:13:33;;;;;;;7.50;6.50;;;13.60;99.90;;;;;;5094658;28;20490;-69
2022/11/16 00:16:00;;;;;;;6.80;6.17;;;13.60;99.90;;;;;;5094846;28;20432;-69
2022/11/16 00:18:27;;;;;;;7.07;6.40;;;13.70;99.90;;;;;;5094578;28;20451;-69
2022/11/16 00:20:55;;;;;;;6.30;5.73;;;13.70;99.90;;;;;;5094317;28;20463;-69
2022/11/16 00:23:22;;;;;;;7.43;6.77;;;13.70;99.90;;;;;;5094494;28;20464;-69
2022/11/16 00:25:49;;;;;;;9.70;6.87;;;13.60;99.90;;;;;;5094639;28;20455;-68
2022/11/16 00:28:17;;;;;;;7.90;6.53;;;13.60;99.90;;;;;;5094241;28;20954;-68
2022/11/16 00:30:44;;;;;;;8.00;6.87;;;13.60;99.90;;;;;;5094337;28;20451;-68
2022/11/16 00:33:15;;;;;;;7.80;6.87;;;13.60;99.90;;;;;;5094262;28;20499;-68
2022/11/16 00:35:42;;;;;;;7.40;6.70;;;13.60;99.90;;;;;;5094458;28;20881;-68
2022/11/16 00:38:08;;;;;;;8.23;7.27;;;13.60;99.90;;;;;;5093965;28;20459;-68
2022/11/16 00:40:35;;;;;;;7.40;6.07;;;13.60;99.90;;;;;;5094342;28;20445;-69
2022/11/16 00:43:02;;;;;;;7.13;6.53;;;13.60;99.90;;;;;;5093957;28;20837;-69
2022/11/16 00:45:30;;;;;;;8.80;6.83;;;13.60;99.90;;;;;;5094168;28;20455;-69
2022/11/16 00:47:57;;;;;;;8.30;7.60;;;13.60;99.90;;;;;;5093905;28;20858;-69
2022/11/16 00:50:23;;;;;;;7.43;6.73;;;13.60;99.90;;;;;;5094011;28;20458;-69
2022/11/16 00:52:50;;;;;;;6.50;5.90;;;13.60;99.90;;;;;;5094217;28;20487;-68
2022/11/16 00:55:17;;;;;;;9.43;6.00;;;13.60;99.90;;;;;;5094183;28;20825;-68
2022/11/16 00:57:44;;;;;;;6.83;6.20;;;13.60;99.90;;;;;;5094039;28;20447;-68
2022/11/16 01:00:12;;;;;;;6.97;6.23;;;13.60;99.90;;;;;;5093784;28;20447;-68
2022/11/16 01:02:40;;;;;;;7.97;7.10;;;13.60;99.90;;;;;;5094013;28;20471;-69
2022/11/16 01:05:08;;;;;;;8.07;6.83;;;13.60;99.90;;;;;;5093887;28;20440;-69
2022/11/16 01:07:35;;;;;;;9.50;7.50;;;13.60;99.90;;;;;;5093523;28;20930;-68
2022/11/16 01:10:03;;;;;;;9.20;6.80;;;13.60;99.90;;;;;;5093852;28;20458;-68
2022/11/16 01:12:29;;;;;;;7.80;6.67;;;13.70;99.90;;;;;;5093600;28;20894;-68
2022/11/16 01:14:56;;;;;;;9.27;7.73;;;13.70;99.90;;;;;;5094185;28;20450;-68
2022/11/16 01:17:22;;;;;;;9.30;7.60;;;13.60;99.90;;;;;;5094727;28;20628;-67
2022/11/16 01:19:51;;;;;;;7.80;6.43;;;13.60;99.90;;;;;;5093923;28;20451;-68
2022/11/16 01:22:17;;;;;;;9.07;5.90;;;13.60;99.90;;;;;;5093673;28;20460;-68
2022/11/16 01:24:45;;;;;;;9.90;6.67;;;13.60;99.90;;;;;;5093345;28;20977;-68
2022/11/16 01:27:12;;;;;;;9.30;6.73;;;13.50;99.90;;;;;;5093522;28;20447;-68
2022/11/16 01:29:39;;;;;;;7.10;6.40;;;13.50;99.90;;;;;;5093492;28;20454;-69
2022/11/16 01:32:06;;;;;;;9.73;7.33;;;13.50;99.90;;;;;;5093469;28;20480;-68
2022/11/16 01:34:33;;;;;;;8.93;8.00;;;13.50;99.90;;;;;;5093487;28;20424;-68
2022/11/16 01:37:01;;;;;;;6.70;6.10;;;13.50;99.90;;;;;;5093207;28;20471;-68
2022/11/16 01:39:28;;;;;;;9.30;6.03;;;13.50;99.90;;;;;;5093094;28;20848;-68
2022/11/16 01:41:55;;;;;;;5.70;5.10;;;13.40;99.90;;;;;;5093521;28;20440;-68
2022/11/16 01:44:58;;;;;;;6.40;5.43;;;13.40;99.90;;;;;;5093494;28;20428;-68
2022/11/16 01:47:24;;;;;;;5.70;4.87;;;13.40;99.90;;;;;;5093053;28;20831;-69
2022/11/16 01:49:56;;;;;;;5.60;5.10;;;13.40;99.90;;;;;;5093293;28;20451;-69
2022/11/16 01:52:29;;;;;;;7.27;5.90;;;13.40;99.90;;;;;;5093255;28;20491;-69
2022/11/16 01:54:55;;;;;;;6.87;5.37;;;13.40;99.90;;;;;;5093440;28;20435;-69
2022/11/16 01:57:26;;;;;;;7.10;4.80;;;13.40;99.90;;;;;;5093300;28;20819;-69
2022/11/16 01:59:56;;;;;;;7.63;5.07;;;13.40;99.90;;;;;;5094499;28;20443;-69
2022/11/16 02:02:23;;;;;;;5.80;5.30;;;13.40;99.90;;;;;;5094759;28;20475;-69
2022/11/16 02:04:52;;;;;;;8.90;4.90;;;13.40;99.90;;;;;;5092897;28;20943;-69
2022/11/16 02:07:29;;;;;;;5.30;4.80;;;13.30;99.90;;;;;;5093302;28;20443;-69
2022/11/16 02:10:11;;;;;;;5.73;4.80;;;13.30;99.90;;;;;;5093222;28;20432;-69
2022/11/16 02:13:03;;;;;;;6.13;4.50;;;13.30;99.90;;;;;;5092778;28;21090;-69
2022/11/16 02:15:35;;;;;;;5.73;5.13;;;13.30;99.90;;;;;;5093163;28;20443;-69
2022/11/16 02:18:15;;;;;;;5.67;5.10;;;13.30;99.90;;;;;;5093067;28;20437;-69
2022/11/16 02:21:07;;;;;;;5.10;4.70;;;13.30;99.90;;;;;;5093215;28;20432;-69
2022/11/16 02:24:02;;;;;;;4.93;4.53;;;13.20;99.90;;;;;;5092779;28;21001;-69
2022/11/16 02:26:56;;;;;;;6.60;5.40;;;13.20;99.90;;;;;;5095277;28;20432;-69
2022/11/16 02:29:29;;;;;;;5.50;5.00;;;13.30;99.90;;;;;;5096018;28;20452;-69
2022/11/16 02:32:01;;;;;;;8.03;4.90;;;13.20;99.90;;;;;;5096845;28;20458;-69
2022/11/16 02:34:33;;;;;;;4.67;4.27;;;13.30;99.90;;;;;;5096717;28;20427;-69
2022/11/16 02:37:04;;;;;;;5.20;4.80;;;13.30;99.90;;;;;;5096554;28;20833;-69
2022/11/16 02:39:32;;;;;;;4.40;4.10;;;13.30;99.90;;;;;;5096953;28;20432;-69
2022/11/16 02:42:00;;;;;;;6.27;5.67;;;13.20;99.90;;;;;;5096308;28;20925;-69
2022/11/16 02:44:33;;;;;;;5.20;4.70;;;13.20;99.90;;;;;;5096332;28;20946;-69
2022/11/16 02:47:03;;;;;;;4.90;4.33;;;13.30;99.90;;;;;;5097487;28;20915;-69
2022/11/16 02:49:33;;;;;;;5.13;3.90;;;13.30;99.90;;;;;;5098063;28;20428;-69
2022/11/16 02:52:01;;;;;;;4.20;3.80;;;13.30;99.90;;;;;;5099596;28;20485;-69
2022/11/16 02:54:28;;;;;;;4.20;3.80;;;13.30;99.90;;;;;;5098621;28;20443;-69
2022/11/16 02:56:57;;;;;;;4.30;3.90;;;13.30;99.90;;;;;;5098057;28;20899;-69
2022/11/16 02:59:28;;;;;;;6.93;4.23;;;13.40;99.90;;;;;;5097385;28;20943;-69
2022/11/16 03:02:03;;;;;;;5.27;4.77;;;13.40;99.90;;;;;;5099377;28;20765;-69
2022/11/16 03:04:36;;;;;;;7.40;6.03;;;13.40;99.90;;;;;;5097767;28;20506;-69
2022/11/16 03:07:06;;;;;;;5.77;5.17;;;13.40;99.90;;;;;;5096635;28;20810;-69
2022/11/16 03:09:37;;;;;;;5.70;5.30;;;13.40;99.90;;;;;;5096911;28;20448;-69
2022/11/16 03:12:08;;;;;;;4.80;4.37;;;13.40;99.90;;;;;;5098137;28;20502;-69
2022/11/16 03:14:40;;;;;;;3.30;3.03;;;13.40;99.90;;;;;;5097362;28;20447;-69
2022/11/16 03:17:15;;;;;;;4.40;4.00;;;13.40;99.90;;;;;;5097259;28;20446;-69
2022/11/16 03:19:48;;;;;;;5.17;3.70;;;13.40;99.90;;;;;;5096447;28;20808;-69
2022/11/16 03:22:18;;;;;;;4.33;3.40;;;13.40;99.90;;;;;;5097797;28;20456;-69
2022/11/16 03:24:45;;;;;;;4.77;3.90;;;13.40;99.90;;;;;;5096712;28;20428;-69
2022/11/16 03:27:22;;;;;;;5.43;3.93;;;13.40;99.90;;;;;;5096490;28;20537;-70
2022/11/16 03:30:00;;;;;;;4.80;4.00;;;13.40;99.90;;;;;;5096553;28;20431;-70
2022/11/16 03:32:33;;;;;;;4.47;4.00;;;13.30;99.90;;;;;;5096115;28;21001;-70
2022/11/16 03:35:04;;;;;;;4.70;4.20;;;13.30;99.90;;;;;;5095780;28;20911;-70
2022/11/16 03:37:33;;;;;;;4.03;3.63;;;13.30;99.90;;;;;;5095925;28;20985;-70
2022/11/16 03:40:02;;;;;;;3.77;3.47;;;13.30;99.90;;;;;;5096085;28;20444;-69
2022/11/16 03:42:30;;;;;;;5.50;5.00;;;13.20;99.90;;;;;;5095681;28;20467;-69
2022/11/16 03:44:57;;;;;;;3.90;3.60;;;13.30;99.90;;;;;;5095496;28;20455;-69
2022/11/16 03:47:24;;;;;;;3.90;3.50;;;13.30;99.90;;;;;;5095741;28;20457;-69
2022/11/16 03:49:52;;;;;;;5.83;3.80;;;13.30;99.90;;;;;;5095734;28;20534;-69
2022/11/16 03:52:19;;;;;;;4.10;3.80;;;13.30;99.90;;;;;;5096361;28;20479;-69
2022/11/16 03:54:46;;;;;;;3.93;3.30;;;13.30;99.90;;;;;;5095509;28;20451;-69
2022/11/16 03:57:16;;;;;;;5.63;4.10;;;13.30;99.90;;;;;;5095654;28;20447;-69
2022/11/16 03:59:44;;;;;;;5.20;4.03;;;13.30;99.90;;;;;;5097630;28;20435;-69
2022/11/16 04:02:11;;;;;;;5.20;4.27;;;13.30;99.90;;;;;;5095981;28;20477;-68
2022/11/16 04:24:12;;;;;;;1.70;1.60;;;13.20;99.90;;;;;;5094690;28;20435;-70
2022/11/16 04:29:25;;;;;;;6.00;1.87;;;13.20;99.90;;;;;;5094535;28;20408;-70
2022/11/16 04:40:08;;;;;;;2.60;2.10;;;13.20;99.90;;;;;;5094575;28;20423;-70
2022/11/16 04:42:35;;;;;;;4.50;3.03;;;13.10;99.90;;;;;;5094666;28;20494;-70
2022/11/16 04:47:48;;;;;;;3.43;2.50;;;13.10;99.90;;;;;;5094156;28;20399;-70
2022/11/16 04:50:15;;;;;;;6.00;2.17;;;13.10;99.90;;;;;;5094491;28;20433;-70
2022/11/16 04:52:42;;;;;;;3.93;2.50;;;13.10;99.90;;;;;;5094124;28;20517;-71
2022/11/16 04:55:10;;;;;;;2.70;2.13;;;13.00;99.90;;;;;;5094266;28;20444;-71
2022/11/16 04:57:37;;;;;;;3.20;2.17;;;13.10;99.90;;;;;;5094353;28;20448;-70
2022/11/16 05:00:05;;;;;;;3.47;2.30;;;13.10;99.90;;;;;;5093928;28;20443;-71
2022/11/16 05:02:32;;;;;;;2.33;2.00;;;13.10;99.90;;;;;;5094639;28;20487;-71
2022/11/16 05:04:59;;;;;;;2.50;2.27;;;13.10;99.90;;;;;;5094790;28;20436;-70
2022/11/16 05:07:26;;;;;;;3.30;1.63;;;13.10;99.90;;;;;;5093827;28;20431;-70
2022/11/16 05:09:52;;;;;;;4.73;2.30;;;13.10;99.90;;;;;;5094088;28;20440;-70
2022/11/16 05:12:23;;;;;;;4.30;2.17;;;13.10;99.90;;;;;;5093962;28;20487;-70
2022/11/16 05:14:50;;;;;;;2.70;2.03;;;13.10;99.90;;;;;;5093542;28;20428;-71
2022/11/16 05:17:18;;;;;;;3.17;2.30;;;13.10;99.90;;;;;;5093886;28;20451;-71
2022/11/16 05:22:29;;;;;;;3.83;2.10;;;13.10;99.90;;;;;;5094001;28;20439;-71
2022/11/16 05:24:56;;;;;;;2.53;2.30;;;13.10;99.90;;;;;;5093644;28;20453;-71
2022/11/16 05:27:26;;;;;;;2.10;1.90;;;13.10;99.90;;;;;;5093706;28;20448;-70
2022/11/16 05:29:53;;;;;;;3.20;2.20;;;13.00;99.90;;;;;;5094124;28;20440;-70
2022/11/16 05:32:21;;;;;;;2.90;2.60;;;13.00;99.90;;;;;;5093957;28;20470;-71
2022/11/16 05:34:48;;;;;;;4.00;2.90;;;13.10;99.90;;;;;;5093825;28;20970;-70
2022/11/16 05:37:16;;;;;;;2.43;2.23;;;13.10;99.90;;;;;;5093666;28;20482;-70
2022/11/16 05:39:43;;;;;;;4.47;2.80;;;13.00;99.90;;;;;;5093674;28;20485;-71
2022/11/16 05:42:10;;;;;;;2.90;2.37;;;13.00;99.90;;;;;;5093917;28;20472;-71
2022/11/16 05:44:38;;;;;;;3.50;2.30;;;13.00;99.90;;;;;;5093721;28;20431;-70
2022/11/16 05:47:05;;;;;;;4.77;3.00;;;13.00;99.90;;;;;;5094378;28;20458;-70
2022/11/16 05:49:32;;;;;;;3.20;2.90;;;13.00;99.90;;;;;;5093724;28;20461;-70
2022/11/16 05:51:58;;;;;;;4.43;2.30;;;13.00;99.90;;;;;;5093380;28;20946;-71
2022/11/16 05:54:25;;;;;;;6.67;2.83;;;13.00;99.90;;;;;;5093667;28;20498;-71
2022/11/16 05:56:53;;;;;;;3.97;2.80;;;13.00;99.90;;;;;;5093782;28;20442;-70
2022/11/16 05:59:21;;;;;;;5.30;2.93;;;13.00;99.90;;;;;;5093525;28;20965;-70
2022/11/16 06:01:50;;;;;;;2.70;2.47;;;12.90;99.90;;;;;;5098717;28;20443;-70
2022/11/16 06:04:18;;;;;;;6.70;2.80;;;12.90;99.90;;;;;;5103837;28;20443;-71
2022/11/16 06:06:44;;;;;;;5.90;2.83;;;12.90;99.90;;;;;;5108862;28;20444;-71
2022/11/16 06:09:12;;;;;;;3.30;2.40;;;12.90;99.90;;;;;;5112849;28;20448;-71
2022/11/16 06:11:39;;;;;;;3.23;2.23;;;12.80;99.90;;;;;;5114038;28;20634;-71
2022/11/16 06:14:06;;;;;;;5.60;2.73;;;12.80;99.90;;;;;;5112899;28;20480;-71
2022/11/16 06:16:33;;;;;;;7.17;2.40;;;12.70;99.90;;;;;;5109144;28;20839;-70
2022/11/16 06:19:01;;;;;;;7.97;2.10;;;12.70;99.90;;;;;;5104140;28;20458;-70
2022/11/16 06:21:28;;;;;;;7.37;2.33;;;12.60;99.90;;;;;;5099717;28;20459;-70
2022/11/16 06:23:55;;;;;;;3.03;1.70;;;12.60;99.90;;;;;;5097135;28;20891;-70
2022/11/16 06:26:21;;;;;;;5.30;2.67;;;12.60;99.90;;;;;;5097450;28;20450;-70
2022/11/16 06:28:48;;;;;;;3.67;1.63;;;12.60;99.90;;;;;;5097089;28;20444;-70
2022/11/16 06:31:15;;;;;;;5.43;2.10;;;12.60;99.90;;;;;;5097465;28;20433;-70
2022/11/16 06:33:42;;;;;;;5.63;1.83;;;12.60;99.90;;;;;;5097038;28;20562;-70
2022/11/16 06:36:10;;;;;;;5.80;1.70;;;12.50;99.90;;;;;;5096803;28;20961;-71
2022/11/16 06:38:37;;;;;;;3.30;1.83;;;12.50;99.90;;;;;;5097067;28;20447;-71
2022/11/16 06:41:04;;;;;;;6.67;1.97;;;12.50;99.90;;;;;;5097822;28;20934;-70
2022/11/16 06:43:31;;;;;;;7.77;2.43;;;12.50;99.90;;;;;;5098330;28;20467;-70
2022/11/16 06:45:58;;;;;;;7.63;2.00;;;12.50;99.90;;;;;;5097262;28;20444;-70
2022/11/16 06:48:25;;;;;;;6.13;2.20;;;12.40;99.80;;;;;;5096781;28;20479;-71
2022/11/16 06:50:52;;;;;;;6.80;1.73;;;12.40;99.60;;;;;;5096888;28;20453;-70
2022/11/16 06:53:21;;;;;;;3.40;1.80;;;12.40;99.50;;;;;;5096709;28;20486;-70
2022/11/16 06:55:48;;;;;;;5.83;2.40;;;12.40;99.40;;;;;;5096696;28;20442;-70
2022/11/16 06:58:15;;;;;;;6.03;2.27;;;12.30;99.20;;;;;;5096736;28;20442;-70
2022/11/16 07:00:41;;;;;;;5.50;2.33;;;12.30;99.20;;;;;;5096561;28;20462;-70
2022/11/16 07:03:08;;;;;;;4.93;1.97;;;12.30;99.10;;;;;;5096642;28;20463;-70
2022/11/16 07:05:39;;;;;;;5.00;2.03;;;12.30;99.00;;;;;;5096613;28;20458;-70
2022/11/16 07:08:06;;;;;;;3.73;2.33;;;12.20;99.10;;;;;;5096798;28;20522;-70
2022/11/16 07:10:34;;;;;;;6.83;2.37;;;12.20;99.20;;;;;;5096379;28;20452;-70
2022/11/16 07:13:03;;;;;;;9.93;2.00;;;12.20;99.10;;;;;;5095750;28;20486;-70
2022/11/16 07:15:30;;;;;;;6.03;2.37;;;12.20;99.10;;;;;;5096504;28;20444;-69
2022/11/16 07:17:56;;;;;;;4.83;1.63;;;12.20;99.00;;;;;;5096120;28;20450;-69
2022/11/16 07:20:23;;;;;;;5.77;2.20;;;12.20;99.00;;;;;;5096257;28;20447;-70
2022/11/16 07:22:50;;;;;;;7.30;2.33;;;12.20;98.80;;;;;;5096355;28;20467;-70
2022/11/16 07:25:16;;;;;;;8.33;1.93;;;12.20;98.80;;;;;;5096019;28;20810;-71
2022/11/16 07:27:44;;;;;;;8.63;1.97;;;12.20;98.80;;;;;;5096792;28;20447;-70
2022/11/16 07:30:12;;;;;;;7.27;2.30;;;12.10;98.50;;;;;;5096511;28;20830;-70
2022/11/16 07:32:39;;;;;;;5.17;2.03;;;12.10;98.30;;;;;;5096296;28;20830;-70
2022/11/16 07:35:07;;;;;;;6.77;2.13;;;12.10;98.30;;;;;;5095850;28;20474;-69
2022/11/16 07:37:33;;;;;;;7.83;2.50;;;12.10;98.30;;;;;;5095545;28;20454;-70
2022/11/16 07:40:00;;;;;;;10.20;2.90;;;12.10;98.30;;;;;;5096022;28;20475;-70
2022/11/16 07:42:27;;;;;;;6.73;2.77;;;12.10;98.40;;;;;;5095487;28;21005;-70
2022/11/16 07:44:55;;;;;;;10.77;2.37;;;12.10;98.30;;;;;;5095784;28;20430;-70
2022/11/16 07:47:21;;;;;;;6.80;2.57;;;12.00;98.30;;;;;;5095479;28;20451;-70
2022/11/16 07:49:48;;;;;;;8.87;2.97;;;12.00;98.30;;;;;;5095796;28;20521;-69
2022/11/16 07:52:15;;;;;;;9.17;2.60;;;12.00;98.20;;;;;;5095774;28;20471;-70
2022/11/16 07:54:42;;;;;;;5.20;2.50;;;12.00;98.30;;;;;;5095323;28;21031;-70
2022/11/16 07:57:08;;;;;;;6.50;4.17;;;12.00;98.30;;;;;;5095596;28;20486;-70
2022/11/16 07:59:35;;;;;;;11.33;6.10;;;12.00;98.30;;;;;;5095454;28;20444;-70
2022/11/16 08:02:03;;;;;;;10.83;3.20;;;12.10;98.30;;;;;;5095347;28;20471;-70
2022/11/16 08:04:30;;;;;;;7.80;2.93;;;12.10;98.30;;;;;;5095236;28;20943;-70
2022/11/16 08:06:56;;;;;;;5.70;2.20;;;12.10;98.30;;;;;;5095421;28;20451;-70
2022/11/16 08:09:23;;;;;;;5.03;2.00;;;12.10;98.20;;;;;;5095427;28;20454;-70
2022/11/16 08:11:50;;;;;;;4.70;1.77;;;12.10;98.20;;;;;;5095354;28;20454;-70
2022/11/16 08:14:18;;;;;;;9.07;2.57;;;12.00;98.20;;;;;;5095124;28;20548;-70
2022/11/16 08:16:44;;;;;;;9.13;2.40;;;12.00;98.20;;;;;;5095613;28;20481;-70
2022/11/16 08:19:13;;;;;;;7.00;2.80;;;12.10;98.20;;;;;;5094912;28;20450;-70
2022/11/16 08:21:39;;;;;;;13.07;3.80;;;12.10;98.10;;;;;;5095188;28;20448;-70
2022/11/16 08:24:07;;;;;;;7.83;3.87;;;12.10;98.40;;;;;;5093972;28;20864;-70
2022/11/16 08:26:33;;;;;;;10.33;4.00;;;12.10;98.20;;;;;;5094996;28;20432;-70
2022/11/16 08:29:00;;;;;;;7.93;3.50;;;12.10;98.20;;;;;;5095035;28;20455;-70
2022/11/16 08:31:28;;;;;;;13.13;3.63;;;12.10;98.20;;;;;;5094872;28;20448;-69
2022/11/16 08:33:55;;;;;;;6.50;2.70;;;12.10;98.10;;;;;;5094777;28;20496;-70
2022/11/16 08:36:23;;;;;;;8.93;2.40;;;12.20;98.00;;;;;;5094683;28;20455;-70
2022/11/16 08:38:51;;;;;;;7.50;2.43;;;12.20;97.90;;;;;;5094996;28;20451;-70
2022/11/16 08:41:19;;;;;;;6.47;2.30;;;12.30;97.80;;;;;;5094757;28;20475;-70
2022/11/16 08:43:49;;;;;;;6.23;2.03;;;12.30;97.50;;;;;;5094637;28;21025;-70
2022/11/16 08:46:16;;;;;;;7.20;1.80;;;12.30;97.50;;;;;;5094629;28;20452;-70
2022/11/16 08:48:43;;;;;;;5.60;2.13;;;12.30;97.20;;;;;;5095444;28;20443;-70
2022/11/16 08:51:13;;;;;;;7.50;2.00;;;12.30;97.20;;;;;;5095593;28;20522;-70
2022/11/16 08:53:42;;;;;;;6.47;2.40;;;12.30;97.00;;;;;;5095171;28;20518;-70
2022/11/16 08:56:12;;;;;;;12.77;3.07;;;12.50;96.80;;;;;;5094598;28;20444;-70
2022/11/16 08:58:41;;;;;;;11.67;1.97;;;12.50;96.60;;;;;;5094656;28;20454;-71
2022/11/16 09:01:09;;;;;;;4.20;1.80;;;12.60;96.30;;;;;;5094916;28;20497;-70
2022/11/16 09:03:37;;;;;;;7.73;2.57;;;12.70;96.10;;;;;;5094455;28;20475;-70
2022/11/16 09:06:04;;;;;;;6.20;1.63;;;12.70;96.10;;;;;;5094247;28;20456;-70
2022/11/16 09:08:31;;;;;;;4.17;1.70;;;12.80;96.20;;;;;;5094122;28;20456;-71
2022/11/16 09:10:59;;;;;;;4.07;1.67;;;12.90;96.10;;;;;;5094280;28;20451;-71
2022/11/16 09:13:26;;;;;;;3.03;1.70;;;13.00;96.10;;;;;;5094544;28;20492;-71
2022/11/16 09:15:57;;;;;;;5.10;1.57;;;13.10;95.90;;;;;;5094604;28;20433;-71
2022/11/16 09:18:23;;;;;;;3.70;1.63;;;13.20;95.70;;;;;;5094268;28;20452;-71
2022/11/16 09:20:50;;;;;;;7.10;1.60;;;13.30;94.80;;;;;;5094293;28;20428;-71
2022/11/16 09:23:18;;;;;;;5.47;1.40;;;13.30;93.40;;;;;;5094988;28;20475;-71
2022/11/16 09:25:47;;;;;;;4.13;1.83;;;13.30;92.90;;;;;;5094550;28;20428;-71
2022/11/16 09:28:15;;;;;;;6.27;1.73;;;13.30;92.60;;;;;;5094442;28;20459;-71
2022/11/16 09:30:42;;;;;;;5.03;1.27;;;13.30;92.30;;;;;;5094649;28;20788;-71
2022/11/16 09:33:09;;;;;;;5.37;1.50;;;13.30;91.90;;;;;;5094163;28;20471;-71
2022/11/16 09:35:36;;;;;;;5.43;1.80;;;13.30;91.80;;;;;;5095042;28;20468;-71
2022/11/16 09:38:03;;;;;;;4.73;1.40;;;13.30;92.00;;;;;;5094004;28;20451;-71
2022/11/16 09:40:33;;;;;;;3.60;1.50;;;13.30;91.80;;;;;;5094628;28;20440;-71
2022/11/16 09:43:06;;;;;;;8.50;1.50;;;13.30;91.80;;;;;;5094387;28;20475;-71
2022/11/16 09:45:42;;;;;;;5.97;1.53;;;13.30;91.70;;;;;;5094360;28;20903;-71
2022/11/16 09:48:13;;;;;;;4.53;1.50;;;13.30;91.60;;;;;;5094009;28;20491;-71
2022/11/16 09:50:45;;;;;;;4.03;1.90;;;13.30;91.90;;;;;;5094250;28;20443;-71
2022/11/16 09:53:26;;;;;;;3.57;1.50;;;13.40;91.70;;;;;;5094444;28;20463;-71
2022/11/16 09:55:56;;;;;;;3.70;1.43;;;13.40;91.40;;;;;;5094499;28;20424;-71
2022/11/16 09:58:28;;;;;;;4.30;1.40;;;13.50;91.70;;;;;;5094440;28;20531;-71
2022/11/16 10:01:00;;;;;;;8.03;1.80;;;13.50;91.90;;;;;;5094846;28;20428;-71
2022/11/16 10:03:31;;;;;;;6.33;2.17;;;13.60;91.20;;;;;;5094586;28;20464;-71
2022/11/16 10:06:02;;;;;;;11.27;2.27;;;13.60;91.20;;;;;;5094388;28;20430;-71
2022/11/16 10:08:42;;;;;;;4.57;2.50;;;13.70;91.00;;;;;;5094998;28;20849;-71
2022/11/16 10:11:41;;;;;;;5.30;1.40;;;13.80;90.60;;;;;;5094906;28;20430;-71
2022/11/16 10:14:39;;;;;;;5.97;1.57;;;13.80;90.10;;;;;;5091010;28;20491;-71
2022/11/16 10:17:12;;;;;;;5.50;2.07;;;13.80;90.20;;;;;;5073701;28;20466;-71
2022/11/16 10:19:52;;;;;;;7.20;2.27;;;13.90;89.70;;;;;;5094081;28;20454;-71
2022/11/16 10:22:34;;;;;;;3.03;1.60;;;13.90;89.90;;;;;;5094643;28;20982;-71
2022/11/16 10:25:09;;;;;;;4.17;2.00;;;14.00;89.80;;;;;;5094671;28;20424;-71
2022/11/16 10:27:50;;;;;;;4.10;1.77;;;14.10;89.50;;;;;;5094695;28;20442;-72
2022/11/16 10:30:18;;;;;;;8.63;2.70;;;14.20;89.60;;;;;;5094615;28;20431;-71
2022/11/16 10:32:50;;;;;;;6.13;2.10;;;14.30;89.50;;;;;;5095080;28;20463;-72
2022/11/16 10:35:22;;;;;;;4.00;1.90;;;14.50;89.00;;;;;;5095537;28;20478;-71
2022/11/16 10:37:50;;;;;;;5.00;2.40;;;14.50;88.00;;;;;;5095447;28;20467;-71
2022/11/16 10:40:22;;;;;;;5.07;2.03;;;14.70;87.20;;;;;;5095399;28;20428;-71
2022/11/16 10:43:01;;;;;;;7.70;2.07;;;14.80;86.50;;;;;;5095775;28;20470;-71
2022/11/16 10:45:35;;;;;;;3.07;1.60;;;15.00;86.30;;;;;;5095953;28;20425;-71
2022/11/16 10:48:12;;;;;;;7.50;1.77;;;15.20;84.40;;;;;;5099494;28;20424;-71
2022/11/16 10:50:42;;;;;;;5.40;2.00;;;15.50;82.90;;;;;;5100976;28;20454;-72
2022/11/16 10:53:14;;;;;;;8.30;1.90;;;15.90;81.20;;;;;;5100340;28;20489;-72
2022/11/16 10:55:40;;;;;;;4.80;1.30;;;16.30;79.30;;;;;;5099777;28;20990;-72
2022/11/16 10:58:07;;;;;;;7.00;2.77;;;16.60;77.60;;;;;;5100168;28;20452;-72
2022/11/16 11:00:44;;;;;;;9.80;3.07;;;16.90;75.80;;;;;;5099645;28;20455;-72
2022/11/16 11:03:12;;;;;;;4.80;1.80;;;17.20;74.30;;;;;;5099942;28;20467;-72
2022/11/16 11:05:49;;;;;;;7.27;2.10;;;17.40;72.30;;;;;;5099797;28;20954;-72
2022/11/16 11:08:26;;;;;;;9.67;1.90;;;17.60;72.10;;;;;;5099563;28;20456;-72
2022/11/16 11:11:00;;;;;;;5.80;1.77;;;18.00;71.00;;;;;;5100147;28;20427;-72
2022/11/16 11:13:27;;;;;;;8.53;1.70;;;18.30;68.90;;;;;;5100459;28;20470;-72
2022/11/16 11:16:14;;;;;;;4.43;1.50;;;18.60;67.70;;;;;;5101045;28;20483;-72
2022/11/16 11:18:42;;;;;;;5.27;1.47;;;19.00;66.60;;;;;;5101289;28;20428;-72
2022/11/16 11:21:16;;;;;;;9.23;1.87;;;19.40;63.20;;;;;;5101101;28;20443;-72
2022/11/16 11:23:46;;;;;;;3.27;1.93;;;19.60;60.90;;;;;;5100474;28;20467;-73
2022/11/16 11:26:30;;;;;;;5.83;2.10;;;19.90;61.00;;;;;;5099980;28;20443;-72
2022/11/16 11:28:59;;;;;;;4.40;1.60;;;20.30;59.30;;;;;;5099040;28;20428;-72
2022/11/16 11:31:33;;;;;;;6.10;1.67;;;20.50;57.30;;;;;;5099525;28;20448;-72
2022/11/16 11:34:14;;;;;;;9.33;1.30;;;20.80;56.90;;;;;;5098565;28;20463;-72
2022/11/16 11:36:45;;;;;;;3.27;1.47;;;21.00;56.00;;;;;;5099807;28;20452;-72
2022/11/16 11:39:29;;;;;;;4.40;2.07;;;21.20;55.60;;;;;;5101150;28;20520;-72
2022/11/16 11:42:02;;;;;;;6.90;1.90;;;21.40;54.50;;;;;;5101456;28;20930;-72
2022/11/16 11:44:36;;;;;;;3.53;1.53;;;21.60;54.30;;;;;;5103528;28;20439;-72
2022/11/16 11:47:16;;;;;;;5.53;2.00;;;21.80;53.30;;;;;;5102072;28;20430;-72
2022/11/16 11:49:51;;;;;;;7.67;1.70;;;22.00;52.50;;;;;;5101030;28;20439;-72
2022/11/16 11:52:25;;;;;;;3.27;1.70;;;21.80;52.60;;;;;;5100993;28;20459;-72
2022/11/16 11:54:54;;;;;;;6.03;1.90;;;21.60;52.90;;;;;;5101940;28;20464;-72
2022/11/16 11:57:23;;;;;;;8.50;3.03;;;21.20;53.30;;;;;;5101814;28;20444;-72
2022/11/16 11:59:53;;;;;;;5.60;2.50;;;20.70;54.00;;;;;;5100548;28;20459;-72
2022/11/16 12:02:32;;;;;;;5.57;2.50;;;20.50;55.40;;;;;;5108877;28;20907;-73
2022/11/16 12:05:28;;;;;;;6.50;2.67;;;20.30;55.90;;;;;;5119998;28;20404;-73
2022/11/16 12:08:16;;;;;;;3.63;1.73;;;20.00;56.00;;;;;;5107733;28;20817;-72
2022/11/16 12:10:49;;;;;;;8.93;3.73;;;19.70;56.30;;;;;;5104116;28;20458;-73
2022/11/16 12:13:39;;;;;;;5.93;2.70;;;19.40;57.10;;;;;;5102257;28;20463;-72
2022/11/16 12:16:15;;;;;;;6.50;2.30;;;19.20;57.50;;;;;;5100186;28;20834;-72
2022/11/16 12:19:03;;;;;;;6.57;3.03;;;18.90;57.80;;;;;;5103093;28;20428;-72
2022/11/16 12:21:44;;;;;;;5.73;1.73;;;18.70;58.80;;;;;;5102846;28;20420;-72
2022/11/16 12:24:28;;;;;;;5.93;1.83;;;18.60;59.60;;;;;;5105489;28;20428;-72
2022/11/16 12:27:09;;;;;;;3.70;1.13;;;18.50;59.60;;;;;;5108535;28;20428;-72
2022/11/16 12:29:44;;;;;;;4.37;1.17;;;18.30;60.00;;;;;;5110196;28;20435;-72
2022/11/16 12:32:33;;;;;;;4.20;1.40;;;18.10;59.90;;;;;;5110652;28;20468;-73
2022/11/16 12:35:30;;;;;;;5.60;1.40;;;17.90;60.30;;;;;;5108715;28;20490;-72
2022/11/16 12:38:10;;;;;;;5.07;1.57;;;17.70;61.40;;;;;;5070453;28;20463;-72
2022/11/16 12:40:49;;;;;;;6.37;2.23;;;17.50;62.30;;;;;;5101228;28;20431;-72
2022/11/16 12:43:21;;;;;;;6.60;1.60;;;17.40;64.00;;;;;;5097348;28;20463;-72
2022/11/16 12:45:58;;;;;;;4.30;1.33;;;17.70;63.50;;;;;;5095511;28;20432;-72
2022/11/16 12:48:40;;;;;;;7.47;1.80;;;18.10;62.60;;;;;;5094613;28;20451;-72
2022/11/16 12:51:16;;;;;;;6.30;1.80;;;18.70;60.00;;;;;;5095110;28;20425;-72
2022/11/16 12:53:59;;;;;;;6.07;1.70;;;19.20;58.20;;;;;;5094583;28;20471;-73
2022/11/16 12:56:36;;;;;;;6.43;1.00;;;19.30;57.40;;;;;;5094181;28;20970;-72
2022/11/16 12:59:22;;;;;;;2.20;1.13;;;19.10;57.40;;;;;;5094190;28;20439;-72
2022/11/16 13:01:58;;;;;;;3.10;1.80;;;18.90;58.30;;;;;;5094313;28;20439;-72
2022/11/16 13:04:30;;;;;;;4.40;1.23;;;18.60;58.40;;;;;;5094104;28;20431;-72
2022/11/16 13:07:03;;;;;;;6.50;2.60;;;18.40;59.00;;;;;;5094233;28;20436;-72
2022/11/16 13:09:35;;;;;;;4.40;2.10;;;18.40;59.50;;;;;;5093941;28;20447;-73
2022/11/16 13:12:12;;;;;;;4.60;2.13;;;18.50;59.80;;;;;;5094354;28;20479;-72
2022/11/16 13:14:43;;;;;;;6.97;2.10;;;18.50;59.60;;;;;;5094042;28;20432;-72
2022/11/16 13:17:19;;;;;;;4.53;1.60;;;18.60;59.70;;;;;;5093925;28;20428;-72
2022/11/16 13:19:53;;;;;;;4.50;1.60;;;18.80;59.70;;;;;;5094420;28;20518;-73
2022/11/16 13:22:23;;;;;;;4.00;1.57;;;19.00;58.20;;;;;;5094125;28;20459;-73
2022/11/16 13:24:57;;;;;;;3.50;1.47;;;19.20;57.80;;;;;;5094161;28;20436;-73
2022/11/16 13:27:34;;;;;;;4.10;1.20;;;19.20;57.40;;;;;;5094028;28;20479;-72
2022/11/16 13:30:05;;;;;;;5.90;1.73;;;19.10;57.80;;;;;;5094183;28;20435;-72
2022/11/16 13:32:46;;;;;;;9.10;2.53;;;18.90;57.90;;;;;;5093907;28;20468;-72
2022/11/16 13:35:15;;;;;;;3.37;1.33;;;18.70;58.40;;;;;;5093616;28;20491;-72
2022/11/16 13:37:47;;;;;;;5.37;2.20;;;18.50;58.80;;;;;;5093888;28;20547;-72
2022/11/16 13:40:27;;;;;;;5.23;2.10;;;18.20;59.30;;;;;;5093723;28;20812;-72